createdAt,value
2023-02-27T00:02:05.892Z,0.00
2023-02-27T00:04:41.005Z,0.00
2023-02-27T00:07:12.794Z,0.00
2023-02-27T00:09:44.484Z,0.00
2023-02-27T00:12:15.975Z,0.00
2023-02-27T00:14:47.606Z,0.00
2023-02-27T00:17:19.732Z,0.00
2023-02-27T00:19:51.438Z,0.00
2023-02-27T00:22:22.984Z,0.00
2023-02-27T00:24:54.695Z,0.00
2023-02-27T00:27:26.304Z,0.00
2023-02-27T00:29:58.100Z,0.00
2023-02-27T00:32:33.149Z,0.00
2023-02-27T00:35:07.019Z,0.03
2023-02-27T00:37:39.590Z,0.00
2023-02-27T00:40:12.554Z,0.03
2023-02-27T00:42:46.246Z,0.00
2023-02-27T00:45:18.555Z,0.05
2023-02-27T00:47:50.123Z,0.00
2023-02-27T00:50:21.748Z,0.00
2023-02-27T00:52:53.298Z,0.00
2023-02-27T00:55:27.168Z,0.00
2023-02-27T00:57:58.936Z,0.00
2023-02-27T01:00:30.526Z,0.10
2023-02-27T01:03:02.114Z,0.00
2023-02-27T01:05:33.770Z,0.00
2023-02-27T01:08:05.392Z,0.00
2023-02-27T01:10:37.030Z,0.00
2023-02-27T01:13:10.340Z,0.00
2023-02-27T01:15:42.966Z,0.00
2023-02-27T01:18:14.491Z,0.00
2023-02-27T01:20:46.038Z,0.00
2023-02-27T01:23:17.603Z,0.00
2023-02-27T01:25:49.854Z,0.00
2023-02-27T01:28:21.619Z,0.00
2023-02-27T01:30:53.335Z,0.05
2023-02-27T01:33:24.937Z,0.00
2023-02-27T01:35:56.558Z,0.00
2023-02-27T01:38:31.461Z,0.00
2023-02-27T01:41:05.026Z,0.00
2023-02-27T01:43:56.291Z,0.32
2023-02-27T01:46:30.329Z,0.00
2023-02-27T01:49:24.086Z,0.03
2023-02-27T01:52:03.285Z,0.00
2023-02-27T01:54:42.514Z,0.03
2023-02-27T01:57:15.586Z,0.05
2023-02-27T01:59:47.346Z,0.03
2023-02-27T02:02:32.883Z,0.00
2023-02-27T02:05:07.440Z,0.00
2023-02-27T02:07:41.801Z,0.00
2023-02-27T02:10:16.120Z,0.00
2023-02-27T02:12:47.645Z,0.00
2023-02-27T02:15:27.901Z,0.10
2023-02-27T02:18:29.097Z,0.00
2023-02-27T02:21:57.980Z,0.00
2023-02-27T02:24:51.486Z,0.00
2023-02-27T02:27:47.949Z,0.00
2023-02-27T02:31:06.152Z,0.00
2023-02-27T02:33:58.811Z,0.00
2023-02-27T02:37:37.107Z,0.00
2023-02-27T02:40:30.815Z,0.00
2023-02-27T02:43:19.467Z,0.00
2023-02-27T02:46:21.101Z,0.00
2023-02-27T02:49:02.875Z,0.00
2023-02-27T02:54:43.922Z,0.00
2023-02-27T02:57:26.725Z,0.00
2023-02-27T03:00:10.661Z,0.00
2023-02-27T03:02:52.652Z,0.00
2023-02-27T03:05:37.599Z,0.10
2023-02-27T03:08:17.291Z,0.00
2023-02-27T03:10:56.696Z,0.00
2023-02-27T03:13:31.068Z,0.00
2023-02-27T03:16:31.570Z,0.00
2023-02-27T03:19:11.016Z,0.00
2023-02-27T03:21:51.723Z,0.00
2023-02-27T03:24:32.501Z,0.00
2023-02-27T03:27:07.518Z,0.00
2023-02-27T03:29:47.579Z,0.25
2023-02-27T03:32:30.131Z,0.00
2023-02-27T03:35:04.263Z,0.00
2023-02-27T03:38:01.477Z,0.08
2023-02-27T03:40:45.517Z,0.00
2023-02-27T03:43:42.805Z,0.00
2023-02-27T03:46:18.657Z,0.00
2023-02-27T03:48:50.479Z,0.00
2023-02-27T03:51:25.161Z,0.00
2023-02-27T03:54:11.866Z,0.00
2023-02-27T03:56:58.855Z,0.00
2023-02-27T03:59:32.352Z,0.00
2023-02-27T04:02:04.483Z,0.00
2023-02-27T04:04:36.119Z,0.00
2023-02-27T04:07:38.686Z,0.00
2023-02-27T04:10:39.698Z,0.00
2023-02-27T04:13:22.511Z,0.00
2023-02-27T04:16:27.338Z,0.00
2023-02-27T04:19:30.282Z,0.00
2023-02-27T04:22:40.085Z,0.00
2023-02-27T04:25:39.694Z,0.03
2023-02-27T04:28:21.692Z,0.00
2023-02-27T04:30:59.104Z,0.00
2023-02-27T04:34:10.221Z,0.00
2023-02-27T04:36:43.289Z,0.10
2023-02-27T04:39:28.905Z,0.00
2023-02-27T04:42:06.590Z,0.00
2023-02-27T04:44:39.649Z,0.00
2023-02-27T04:47:14.152Z,0.00
2023-02-27T04:50:00.079Z,0.00
2023-02-27T04:52:40.856Z,0.00
2023-02-27T04:55:23.504Z,0.00
2023-02-27T04:58:03.372Z,0.00
2023-02-27T05:00:38.552Z,0.00
2023-02-27T05:03:18.188Z,0.00
2023-02-27T05:05:53.151Z,0.00
2023-02-27T05:08:53.018Z,0.00
2023-02-27T05:11:26.749Z,0.00
2023-02-27T05:14:16.205Z,0.00
2023-02-27T05:17:09.316Z,0.00
2023-02-27T05:19:44.374Z,0.00
2023-02-27T05:23:08.601Z,0.00
2023-02-27T05:25:51.287Z,0.00
2023-02-27T05:28:41.977Z,0.00
2023-02-27T05:31:50.236Z,0.00
2023-02-27T05:34:29.896Z,0.00
2023-02-27T05:37:46.301Z,0.00
2023-02-27T05:40:30.604Z,0.00
2023-02-27T05:43:12.972Z,0.00
2023-02-27T05:45:48.546Z,0.00
2023-02-27T05:51:28.078Z,0.00
2023-02-27T05:54:08.732Z,0.00
2023-02-27T05:56:43.136Z,0.00
2023-02-27T05:59:28.295Z,0.00
2023-02-27T06:02:00.361Z,0.00
2023-02-27T06:04:32.016Z,0.00
2023-02-27T06:07:06.917Z,0.00
2023-02-27T06:09:39.680Z,0.00
2023-02-27T06:12:11.310Z,0.00
2023-02-27T06:14:42.839Z,0.00
2023-02-27T06:17:14.542Z,0.00
2023-02-27T06:19:46.163Z,0.00
2023-02-27T06:22:17.733Z,0.20
2023-02-27T06:24:49.446Z,0.00
2023-02-27T06:27:21.072Z,0.00
2023-02-27T06:29:54.167Z,0.00
2023-02-27T06:32:26.155Z,0.00
2023-02-27T06:34:57.798Z,0.00
2023-02-27T06:37:29.405Z,0.00
2023-02-27T06:40:01.048Z,0.00
2023-02-27T06:42:32.947Z,0.00
2023-02-27T06:45:05.853Z,0.00
2023-02-27T06:47:39.957Z,0.00
2023-02-27T06:50:13.536Z,0.00
2023-02-27T06:52:45.092Z,0.00
2023-02-27T06:55:22.618Z,0.00
2023-02-27T06:57:54.213Z,0.00
2023-02-27T07:00:26.011Z,0.00
2023-02-27T07:02:57.665Z,0.00
2023-02-27T07:05:29.260Z,0.00
2023-02-27T07:08:04.747Z,0.03
2023-02-27T07:10:36.345Z,0.00
2023-02-27T07:13:07.884Z,0.00
2023-02-27T07:15:40.097Z,0.05
2023-02-27T07:18:11.877Z,0.00
2023-02-27T07:20:43.581Z,0.00
2023-02-27T07:23:15.225Z,0.00
2023-02-27T07:25:48.419Z,0.00
2023-02-27T07:28:20.544Z,0.00
2023-02-27T07:30:54.956Z,0.00
2023-02-27T07:33:26.663Z,0.00
2023-02-27T07:35:58.264Z,0.00
2023-02-27T07:38:32.239Z,0.00
2023-02-27T07:41:04.046Z,0.00
2023-02-27T07:43:35.653Z,0.00
2023-02-27T07:46:07.306Z,0.00
2023-02-27T07:48:40.392Z,0.22
2023-02-27T07:51:11.931Z,0.00
2023-02-27T07:53:45.807Z,0.00
2023-02-27T07:56:17.515Z,0.00
2023-02-27T07:58:49.159Z,0.00
2023-02-27T08:01:23.039Z,0.00
2023-02-27T08:03:56.454Z,0.00
2023-02-27T08:06:28.430Z,0.00
2023-02-27T08:09:00.304Z,0.00
2023-02-27T08:11:31.828Z,0.00
2023-02-27T08:14:03.490Z,0.00
2023-02-27T08:16:35.152Z,0.00
2023-02-27T08:19:06.931Z,0.00
2023-02-27T08:21:38.430Z,0.10
2023-02-27T08:24:10.909Z,0.00
2023-02-27T08:26:42.458Z,0.20
2023-02-27T08:29:15.561Z,0.00
2023-02-27T08:31:48.878Z,0.00
2023-02-27T08:34:20.587Z,0.00
2023-02-27T08:36:52.901Z,0.00
2023-02-27T08:39:24.454Z,0.00
2023-02-27T08:41:56.112Z,0.03
2023-02-27T08:44:27.670Z,0.05
2023-02-27T08:46:59.272Z,0.00
2023-02-27T08:49:33.172Z,0.00
2023-02-27T08:52:05.758Z,0.00
2023-02-27T08:54:37.809Z,0.10
2023-02-27T08:57:12.350Z,0.00
2023-02-27T08:59:44.012Z,0.17
2023-02-27T09:02:15.974Z,0.13
2023-02-27T09:04:47.566Z,0.00
2023-02-27T09:07:21.226Z,0.00
2023-02-27T09:09:53.000Z,0.00
2023-02-27T09:12:24.565Z,0.10
2023-02-27T09:14:56.199Z,0.10
2023-02-27T09:17:27.786Z,0.13
2023-02-27T09:20:00.131Z,0.00
2023-02-27T09:22:31.680Z,0.05
2023-02-27T09:25:03.717Z,0.00
2023-02-27T09:27:36.007Z,0.00
2023-02-27T09:30:09.795Z,0.00
2023-02-27T09:32:41.468Z,0.00
2023-02-27T09:35:15.815Z,0.00
2023-02-27T09:37:49.335Z,0.00
2023-02-27T09:40:29.376Z,0.00
2023-02-27T09:43:09.244Z,0.00
2023-02-27T09:45:41.250Z,0.00
2023-02-27T09:48:30.017Z,0.00
2023-02-27T09:51:02.261Z,0.00
2023-02-27T09:53:41.570Z,0.00
2023-02-27T09:56:35.616Z,0.17
2023-02-27T10:03:03.924Z,0.00
2023-02-27T10:05:44.079Z,0.00
2023-02-27T10:08:53.915Z,0.00
2023-02-27T10:12:12.642Z,0.00
2023-02-27T10:15:27.115Z,0.00
2023-02-27T10:18:26.933Z,0.00
2023-02-27T10:21:24.317Z,0.03
2023-02-27T10:24:29.509Z,0.00
2023-02-27T10:27:05.696Z,0.20
2023-02-27T10:29:41.700Z,0.03
2023-02-27T10:32:25.425Z,0.00
2023-02-27T10:35:17.828Z,0.00
2023-02-27T10:37:59.133Z,0.00
2023-02-27T10:40:35.051Z,0.00
2023-02-27T10:43:07.214Z,0.15
2023-02-27T10:45:39.053Z,0.00
2023-02-27T10:48:11.658Z,0.00
2023-02-27T10:50:52.603Z,0.00
2023-02-27T10:53:27.895Z,0.43
2023-02-27T10:56:08.094Z,0.05
2023-02-27T10:58:39.684Z,0.00
2023-02-27T11:01:12.637Z,0.03
2023-02-27T11:03:44.734Z,0.03
2023-02-27T11:06:26.693Z,0.25
2023-02-27T11:09:33.292Z,0.00
2023-02-27T11:12:29.586Z,0.03
2023-02-27T11:15:11.679Z,0.00
2023-02-27T11:17:44.000Z,0.00
2023-02-27T11:20:37.077Z,0.00
2023-02-27T11:23:21.809Z,0.03
2023-02-27T11:26:15.289Z,0.00
2023-02-27T11:29:02.944Z,0.00
2023-02-27T11:31:37.175Z,0.00
2023-02-27T11:34:39.860Z,0.00
2023-02-27T11:37:32.485Z,0.08
2023-02-27T11:40:16.365Z,0.00
2023-02-27T11:42:58.411Z,0.00
2023-02-27T11:46:17.705Z,0.00
2023-02-27T11:48:57.509Z,0.00
2023-02-27T11:51:50.876Z,0.00
2023-02-27T11:54:49.885Z,0.00
2023-02-27T11:57:35.118Z,0.00
2023-02-27T12:00:29.587Z,0.00
2023-02-27T12:03:46.235Z,0.20
2023-02-27T12:06:35.760Z,0.00
2023-02-27T12:09:34.545Z,0.03
2023-02-27T12:12:26.415Z,0.03
2023-02-27T12:15:18.299Z,0.00
2023-02-27T12:18:21.298Z,0.00
2023-02-27T12:21:13.331Z,0.40
2023-02-27T12:23:58.676Z,0.73
2023-02-27T12:26:39.920Z,0.00
2023-02-27T12:29:22.364Z,0.10
2023-02-27T12:32:48.091Z,0.00
2023-02-27T12:35:27.743Z,0.00
2023-02-27T12:38:01.546Z,0.00
2023-02-27T12:40:42.464Z,0.03
2023-02-27T12:43:50.826Z,0.00
2023-02-27T12:46:40.723Z,0.00
2023-02-27T12:49:51.602Z,0.00
2023-02-27T12:52:38.430Z,0.00
2023-02-27T12:55:26.056Z,0.00
2023-02-27T12:58:41.326Z,0.08
2023-02-27T13:01:35.365Z,0.05
2023-02-27T13:07:04.232Z,0.00
2023-02-27T13:09:41.292Z,0.08
2023-02-27T13:12:50.634Z,0.15
2023-02-27T13:15:33.360Z,0.05
2023-02-27T13:18:23.638Z,0.32
2023-02-27T13:21:23.805Z,0.00
2023-02-27T13:24:24.072Z,0.20
2023-02-27T13:27:03.328Z,0.10
2023-02-27T13:29:47.601Z,0.00
2023-02-27T13:32:44.485Z,0.00
2023-02-27T13:35:36.126Z,0.00
2023-02-27T13:38:34.472Z,0.10
2023-02-27T13:41:21.400Z,0.00
2023-02-27T13:44:21.102Z,0.00
2023-02-27T13:46:52.735Z,0.00
2023-02-27T13:49:29.611Z,0.45
2023-02-27T13:52:02.350Z,0.28
2023-02-27T13:54:40.875Z,0.00
2023-02-27T13:57:21.502Z,0.20
2023-02-27T13:59:57.755Z,0.03
2023-02-27T14:02:59.425Z,0.03
2023-02-27T14:05:55.455Z,0.10
2023-02-27T14:08:30.462Z,0.00
2023-02-27T14:11:24.524Z,0.03
2023-02-27T14:16:38.197Z,0.13
2023-02-27T14:19:15.809Z,0.13
2023-02-27T14:22:30.080Z,0.00
2023-02-27T14:25:40.416Z,0.22
2023-02-27T14:28:41.458Z,0.00
2023-02-27T14:31:36.625Z,0.30
2023-02-27T14:34:15.433Z,0.00
2023-02-27T14:37:01.584Z,0.20
2023-02-27T14:39:38.450Z,0.00
2023-02-27T14:43:04.454Z,0.10
2023-02-27T14:45:36.337Z,0.57
2023-02-27T14:48:10.666Z,0.10
2023-02-27T14:50:42.356Z,0.00
2023-02-27T14:53:24.954Z,0.00
2023-02-27T14:56:00.348Z,0.00
2023-02-27T14:58:34.543Z,0.00
2023-02-27T15:01:09.761Z,0.00
2023-02-27T15:03:52.818Z,0.00
2023-02-27T15:06:44.258Z,0.00
2023-02-27T15:09:43.484Z,0.00
2023-02-27T15:12:20.591Z,0.10
2023-02-27T15:14:59.863Z,0.00
2023-02-27T15:17:46.447Z,0.00
2023-02-27T15:20:32.637Z,0.00
2023-02-27T15:23:26.199Z,0.00
2023-02-27T15:25:59.758Z,0.00
2023-02-27T15:28:38.334Z,0.00
2023-02-27T15:31:17.739Z,0.00
2023-02-27T15:33:51.299Z,0.10
2023-02-27T15:36:27.336Z,0.10
2023-02-27T15:39:17.535Z,0.00
2023-02-27T15:41:58.925Z,0.00
2023-02-27T15:44:44.446Z,0.00
2023-02-27T15:47:25.949Z,0.00
2023-02-27T15:50:10.187Z,0.00
2023-02-27T15:52:49.380Z,0.00
2023-02-27T15:55:29.255Z,0.00
2023-02-27T15:58:03.341Z,0.00
2023-02-27T16:00:35.811Z,0.00
2023-02-27T16:03:09.200Z,0.00
2023-02-27T16:05:41.988Z,0.00
2023-02-27T16:08:18.619Z,0.00
2023-02-27T16:10:51.902Z,0.00
2023-02-27T16:13:38.514Z,0.00
2023-02-27T16:16:35.314Z,0.00
2023-02-27T16:19:27.138Z,0.03
2023-02-27T16:22:17.049Z,0.13
2023-02-27T16:24:49.768Z,0.13
2023-02-27T16:27:24.638Z,0.00
2023-02-27T16:30:02.438Z,0.00
2023-02-27T16:32:37.885Z,0.00
2023-02-27T16:35:21.523Z,0.00
2023-02-27T16:37:59.822Z,0.10
2023-02-27T16:40:31.557Z,0.00
2023-02-27T16:43:03.622Z,0.00
2023-02-27T16:45:35.421Z,0.00
2023-02-27T16:48:07.494Z,0.00
2023-02-27T16:50:43.093Z,0.00
2023-02-27T16:55:46.336Z,0.00
2023-02-27T16:58:18.809Z,0.00
2023-02-27T17:00:50.413Z,0.00
2023-02-27T17:03:22.782Z,0.10
2023-02-27T17:05:54.533Z,0.00
2023-02-27T17:08:26.181Z,0.00
2023-02-27T17:10:58.336Z,0.32
2023-02-27T17:13:30.090Z,0.00
2023-02-27T17:16:04.184Z,0.00
2023-02-27T17:18:37.599Z,0.00
2023-02-27T17:21:09.189Z,0.10
2023-02-27T17:23:40.716Z,0.00
2023-02-27T17:26:13.478Z,0.00
2023-02-27T17:28:45.031Z,0.10
2023-02-27T17:31:18.738Z,0.00
2023-02-27T17:33:53.937Z,0.00
2023-02-27T17:36:26.285Z,0.00
2023-02-27T17:39:01.664Z,0.03
2023-02-27T17:41:34.015Z,0.00
2023-02-27T17:44:11.861Z,0.10
2023-02-27T17:46:43.441Z,0.00
2023-02-27T17:49:15.634Z,0.00
2023-02-27T17:51:47.326Z,0.03
2023-02-27T17:54:19.132Z,0.00
2023-02-27T17:56:50.662Z,0.00
2023-02-27T17:59:22.444Z,0.00
2023-02-27T18:01:55.565Z,0.03
2023-02-27T18:04:27.628Z,0.00
2023-02-27T18:06:59.169Z,0.00
2023-02-27T18:09:33.114Z,0.00
2023-02-27T18:12:04.989Z,0.00
2023-02-27T18:14:37.256Z,0.00
2023-02-27T18:17:12.959Z,0.00
2023-02-27T18:19:44.710Z,0.00
2023-02-27T18:22:16.410Z,0.08
2023-02-27T18:24:49.144Z,0.10
2023-02-27T18:27:22.133Z,0.00
2023-02-27T18:29:54.042Z,0.00
2023-02-27T18:32:26.122Z,0.03
2023-02-27T18:34:58.204Z,0.03
2023-02-27T18:37:29.735Z,0.00
2023-02-27T18:40:01.361Z,0.00
2023-02-27T18:42:35.356Z,0.10
2023-02-27T18:45:09.148Z,0.30
2023-02-27T18:47:41.745Z,0.00
2023-02-27T18:50:13.979Z,0.05
2023-02-27T18:52:47.294Z,0.10
2023-02-27T18:55:19.832Z,0.03
2023-02-27T18:57:51.401Z,0.17
2023-02-27T19:00:24.630Z,0.00
2023-02-27T19:02:56.924Z,0.10
2023-02-27T19:05:28.781Z,0.20
2023-02-27T19:08:00.417Z,0.00
2023-02-27T19:10:34.888Z,0.00
2023-02-27T19:13:09.397Z,0.20
2023-02-27T19:15:41.079Z,0.05
2023-02-27T19:18:12.620Z,0.00
2023-02-27T19:20:44.375Z,0.17
2023-02-27T19:23:15.910Z,0.20
2023-02-27T19:25:49.086Z,0.10
2023-02-27T19:28:20.604Z,0.03
2023-02-27T19:30:52.399Z,0.20
2023-02-27T19:33:24.307Z,0.08
2023-02-27T19:35:55.855Z,0.05
2023-02-27T19:38:27.396Z,0.00
2023-02-27T19:41:11.887Z,0.03
2023-02-27T19:43:43.879Z,0.15
2023-02-27T19:46:20.414Z,0.00
2023-02-27T19:48:54.482Z,0.00
2023-02-27T19:51:26.978Z,0.00
2023-02-27T19:53:58.611Z,0.00
2023-02-27T19:56:31.209Z,0.30
2023-02-27T19:59:03.321Z,0.10
2023-02-27T20:01:38.860Z,0.03
2023-02-27T20:04:11.342Z,0.05
2023-02-27T20:06:45.101Z,0.22
2023-02-27T20:09:18.618Z,0.47
2023-02-27T20:11:55.380Z,0.28
2023-02-27T20:14:28.063Z,0.05
2023-02-27T20:16:59.749Z,0.10
2023-02-27T20:19:31.416Z,0.40
2023-02-27T20:22:03.421Z,0.05
2023-02-27T20:24:35.220Z,0.00
2023-02-27T20:27:09.612Z,0.50
2023-02-27T20:29:42.460Z,0.00
2023-02-27T20:32:16.529Z,0.00
2023-02-27T20:34:50.283Z,0.20
2023-02-27T20:37:25.438Z,0.20
2023-02-27T20:40:00.047Z,0.00
2023-02-27T20:42:32.567Z,0.00
2023-02-27T20:45:05.507Z,0.05
2023-02-27T20:47:38.226Z,0.20
2023-02-27T20:50:13.584Z,0.00
2023-02-27T20:52:48.279Z,0.20
2023-02-27T20:55:22.002Z,0.03
2023-02-27T20:57:54.559Z,0.73
2023-02-27T21:00:26.821Z,0.17
2023-02-27T21:03:00.791Z,0.10
2023-02-27T21:05:34.152Z,0.00
2023-02-27T21:08:09.922Z,0.00
2023-02-27T21:10:41.956Z,0.10
2023-02-27T21:13:13.469Z,0.03
2023-02-27T21:15:45.945Z,0.28
2023-02-27T21:18:17.533Z,0.00
2023-02-27T21:20:50.541Z,0.00
2023-02-27T21:23:22.067Z,0.13
2023-02-27T21:25:53.719Z,0.10
2023-02-27T21:28:25.573Z,0.28
2023-02-27T21:30:57.816Z,0.10
2023-02-27T21:33:29.390Z,0.20
2023-02-27T21:36:01.202Z,0.25
2023-02-27T21:38:35.276Z,0.10
2023-02-27T21:41:11.764Z,0.10
2023-02-27T21:43:43.842Z,0.17
2023-02-27T21:46:15.487Z,0.20
2023-02-27T21:48:47.032Z,0.05
2023-02-27T21:51:33.053Z,0.50
2023-02-27T21:54:11.968Z,0.35
2023-02-27T21:56:45.658Z,0.20
2023-02-27T21:59:19.340Z,0.10
2023-02-27T22:01:51.096Z,0.40
2023-02-27T22:04:23.466Z,0.25
2023-02-27T22:06:55.506Z,0.22
2023-02-27T22:09:27.298Z,0.28
2023-02-27T22:11:58.826Z,0.30
2023-02-27T22:14:30.383Z,0.30
2023-02-27T22:17:02.002Z,0.22
2023-02-27T22:19:33.571Z,0.57
2023-02-27T22:22:05.423Z,0.52
2023-02-27T22:24:37.034Z,0.55
2023-02-27T22:27:09.351Z,0.40
2023-02-27T22:29:42.340Z,0.13
2023-02-27T22:32:14.758Z,0.50
2023-02-27T22:34:46.326Z,0.52
2023-02-27T22:37:19.770Z,0.95
2023-02-27T22:39:51.320Z,0.35
2023-02-27T22:42:23.696Z,0.38
2023-02-27T22:44:58.717Z,0.22
2023-02-27T22:47:31.479Z,0.17
2023-02-27T22:50:04.260Z,0.40
2023-02-27T22:52:37.243Z,0.90
2023-02-27T22:55:09.638Z,0.45
2023-02-27T22:57:41.237Z,0.75
2023-02-27T23:00:13.259Z,0.63
2023-02-27T23:02:44.962Z,0.30
2023-02-27T23:05:16.546Z,1.05
2023-02-27T23:07:48.076Z,0.40
2023-02-27T23:10:19.675Z,0.60
2023-02-27T23:12:51.449Z,0.70
2023-02-27T23:15:23.069Z,0.32
2023-02-27T23:17:58.562Z,0.65
2023-02-27T23:20:30.439Z,0.60
2023-02-27T23:23:01.970Z,0.25
2023-02-27T23:25:35.696Z,0.93
2023-02-27T23:28:07.933Z,0.45
2023-02-27T23:30:39.548Z,0.45
2023-02-27T23:33:11.103Z,0.55
2023-02-27T23:35:43.366Z,0.15
2023-02-27T23:38:15.029Z,0.82
2023-02-27T23:40:49.944Z,0.50
2023-02-27T23:43:40.641Z,0.52
2023-02-27T23:46:16.267Z,1.55
2023-02-27T23:51:19.928Z,0.82
2023-02-27T23:53:52.627Z,1.27
2023-02-27T23:56:28.919Z,0.57
2023-02-27T23:59:04.767Z,0.95
